Terminal Aerodrome Forecast
Issued by NWS

Home | Current Version | Previous Version | Graphics & Text | Print | Product List | Glossary On
Versions: 1 2 3 4 5 6 7 8 9 10 11 12 13 14 15 16
000
FTUS43 KGRB 231730
TAFCWA
TAF
KCWA 231730Z 2318/2418 29005KT P6SM FEW100
     FM240000 21004KT P6SM SKC
     FM240600 20008KT P6SM SCT100 WS015/23032KT
     FM241500 21012G20KT P6SM FEW080 SCT150
     FM241700 22012G18KT P6SM FEW050 BKN080=

USA.gov is the U.S. government's official web portal to all federal, state and local government web resources and services.